Time;durP1;ratioP1;P1;durP2;ratioP2;P2;SDS_P1;SDS_P2;PMS_P1;PMS_P2;Temp;Humidity;BMP_temperature;BMP_pressure;BME280_temperature;BME280_humidity;BME280_pressure;Samples;Min_cycle;Max_cycle;Signal;HPM_P1;HPM_P2
2022/04/07 00:00:41;;;;;;;5.38;3.15;;;11.30;99.90;;;;;;5072665;28;20108;-62
2022/04/07 00:03:07;;;;;;;6.35;2.80;;;11.40;99.90;;;;;;5078457;28;20497;-62
2022/04/07 00:05:32;;;;;;;5.60;2.92;;;11.40;99.90;;;;;;5077774;28;20086;-60
2022/04/07 00:07:58;;;;;;;5.55;2.20;;;11.40;99.90;;;;;;5073135;28;20025;-57
2022/04/07 00:10:23;;;;;;;3.60;2.00;;;11.40;99.90;;;;;;5069676;28;20353;-61
2022/04/07 00:12:49;;;;;;;4.28;2.33;;;11.40;99.90;;;;;;5075564;28;20040;-63
2022/04/07 00:15:15;;;;;;;3.45;2.03;;;11.40;99.90;;;;;;5073000;28;20650;-63
2022/04/07 00:17:40;;;;;;;2.97;2.05;;;11.30;99.90;;;;;;5077704;28;20061;-62
2022/04/07 00:20:06;;;;;;;5.65;1.73;;;11.40;99.90;;;;;;5067085;28;20388;-62
2022/04/07 00:22:32;;;;;;;5.15;1.63;;;11.50;99.90;;;;;;5071464;28;20044;-61
2022/04/07 00:24:57;;;;;;;4.80;2.25;;;11.50;99.90;;;;;;5073448;28;20577;-59
2022/04/07 00:27:23;;;;;;;3.33;1.52;;;11.40;99.90;;;;;;5076307;28;20488;-59
2022/04/07 00:29:48;;;;;;;4.78;1.67;;;11.40;99.90;;;;;;5073413;28;20027;-59
2022/04/07 00:32:14;;;;;;;2.30;1.20;;;11.40;99.90;;;;;;5073186;28;20027;-60
2022/04/07 00:34:43;;;;;;;4.53;1.23;;;11.40;99.90;;;;;;5072060;28;20123;-60
2022/04/07 00:37:08;;;;;;;3.10;1.20;;;11.40;99.90;;;;;;5080308;28;20447;-57
2022/04/07 00:39:34;;;;;;;3.15;1.30;;;11.30;99.90;;;;;;5074310;28;20028;-60
2022/04/07 00:42:00;;;;;;;3.42;1.20;;;11.40;99.90;;;;;;5072144;28;20028;-60
2022/04/07 00:44:27;;;;;;;2.17;1.25;;;11.40;99.90;;;;;;5075888;28;20033;-61
2022/04/07 00:46:53;;;;;;;3.20;1.52;;;11.30;99.90;;;;;;5076417;28;20017;-61
2022/04/07 00:49:18;;;;;;;2.38;1.30;;;11.40;99.90;;;;;;5074990;28;20066;-60
2022/04/07 00:51:45;;;;;;;6.72;1.40;;;11.40;99.90;;;;;;5073324;28;20077;-59
2022/04/07 00:54:12;;;;;;;3.70;1.20;;;11.40;99.90;;;;;;5067838;28;20052;-59
2022/04/07 00:56:39;;;;;;;1.80;0.77;;;11.60;99.90;;;;;;5066756;28;20472;-57
2022/04/07 00:59:06;;;;;;;3.20;1.40;;;11.50;99.90;;;;;;5071600;28;20043;-60
2022/04/07 01:01:31;;;;;;;1.65;1.00;;;11.50;99.90;;;;;;5073887;28;20024;-60
2022/04/07 01:03:58;;;;;;;2.85;0.90;;;11.50;99.90;;;;;;5056823;28;20059;-62
2022/04/07 01:06:24;;;;;;;5.32;1.55;;;11.40;99.90;;;;;;5078811;28;20048;-62
2022/04/07 01:08:50;;;;;;;2.20;1.00;;;11.40;99.90;;;;;;5078782;28;20525;-62
2022/04/07 01:11:17;;;;;;;5.25;1.10;;;11.30;99.90;;;;;;5072377;28;20032;-62
2022/04/07 01:13:48;;;;;;;4.55;1.27;;;11.30;99.90;;;;;;5077017;28;20355;-60
2022/04/07 01:16:14;;;;;;;4.18;1.30;;;11.30;99.90;;;;;;5072727;28;20086;-60
2022/04/07 01:18:40;;;;;;;2.53;1.08;;;11.30;99.90;;;;;;5075861;28;20043;-61
2022/04/07 01:21:08;;;;;;;5.82;1.05;;;11.30;99.90;;;;;;5073602;28;20082;-63
2022/04/07 01:23:35;;;;;;;2.40;1.08;;;11.20;99.90;;;;;;5073270;28;20028;-60
2022/04/07 01:26:02;;;;;;;5.80;0.80;;;11.20;99.90;;;;;;5056919;28;20074;-61
2022/04/07 01:28:28;;;;;;;1.00;0.80;;;11.20;99.90;;;;;;5068828;28;20037;-59
2022/04/07 01:30:54;;;;;;;0.73;0.70;;;11.20;99.90;;;;;;5072515;28;20031;-59
2022/04/07 01:33:19;;;;;;;3.20;0.90;;;11.10;99.90;;;;;;5069319;28;20036;-57
2022/04/07 01:35:46;;;;;;;2.35;0.63;;;11.10;99.90;;;;;;5074721;28;20503;-58
2022/04/07 01:38:12;;;;;;;2.55;0.90;;;11.10;99.90;;;;;;5073218;28;20082;-59
2022/04/07 01:40:38;;;;;;;2.78;0.70;;;11.10;99.90;;;;;;5074236;28;20400;-57
2022/04/07 01:43:07;;;;;;;2.60;1.20;;;11.10;99.90;;;;;;5076427;28;20082;-60
2022/04/07 01:45:34;;;;;;;2.20;1.00;;;11.10;99.90;;;;;;5071466;28;20012;-59
2022/04/07 01:48:02;;;;;;;1.67;1.50;;;11.10;99.90;;;;;;5075088;28;20024;-55
2022/04/07 01:50:29;;;;;;;3.63;1.02;;;11.10;99.90;;;;;;5071290;28;20052;-59
2022/04/07 01:52:56;;;;;;;2.95;1.00;;;11.10;99.90;;;;;;5071765;28;20089;-58
2022/04/07 01:55:23;;;;;;;1.50;0.85;;;11.20;99.90;;;;;;5075518;28;20028;-62
2022/04/07 01:57:49;;;;;;;3.13;1.00;;;11.20;99.90;;;;;;5072062;28;20043;-60
2022/04/07 02:00:15;;;;;;;1.92;0.75;;;11.10;99.90;;;;;;5073485;28;20024;-61
2022/04/07 02:02:41;;;;;;;1.38;0.80;;;11.10;99.90;;;;;;5073227;28;20353;-60
2022/04/07 02:05:09;;;;;;;2.08;1.02;;;11.10;99.90;;;;;;5074899;28;20020;-61
2022/04/07 02:07:36;;;;;;;2.42;0.90;;;11.20;99.90;;;;;;5072497;28;20103;-59
2022/04/07 02:10:04;;;;;;;2.03;0.88;;;11.20;99.90;;;;;;5069742;28;20504;-57
2022/04/07 02:12:29;;;;;;;1.48;0.90;;;11.20;99.90;;;;;;5078963;28;20028;-57
2022/04/07 02:14:56;;;;;;;5.95;1.27;;;11.20;99.90;;;;;;5070905;28;20031;-60
2022/04/07 02:17:22;;;;;;;2.15;0.70;;;11.20;99.90;;;;;;5073162;28;20024;-62
2022/04/07 02:19:57;;;;;;;2.35;0.90;;;11.20;99.90;;;;;;5070412;28;20031;-60
2022/04/07 02:22:23;;;;;;;2.35;0.70;;;11.20;99.90;;;;;;5073195;28;20024;-60
2022/04/07 02:24:49;;;;;;;2.97;0.80;;;11.20;99.90;;;;;;5075320;28;20040;-61
2022/04/07 02:27:15;;;;;;;3.97;0.90;;;11.20;99.90;;;;;;5072168;28;20049;-60
2022/04/07 02:29:44;;;;;;;1.70;0.77;;;11.20;99.90;;;;;;5070187;28;20024;-60
2022/04/07 02:32:13;;;;;;;9.25;1.27;;;11.20;99.90;;;;;;5074915;28;20413;-61
2022/04/07 02:34:42;;;;;;;1.75;0.90;;;11.30;99.90;;;;;;5071387;28;20020;-58
2022/04/07 02:37:09;;;;;;;1.30;0.77;;;11.30;99.90;;;;;;5075233;28;20039;-59
2022/04/07 02:39:34;;;;;;;1.92;0.68;;;11.30;99.90;;;;;;5074219;28;20035;-57
2022/04/07 02:42:00;;;;;;;5.53;0.85;;;11.30;99.90;;;;;;5076219;28;20032;-60
2022/04/07 02:44:25;;;;;;;1.42;0.60;;;11.30;99.90;;;;;;5069979;28;20029;-61
2022/04/07 02:46:51;;;;;;;3.58;0.70;;;11.30;99.90;;;;;;5071712;28;20033;-60
2022/04/07 02:49:17;;;;;;;4.82;0.70;;;11.30;99.90;;;;;;5062549;28;20056;-57
2022/04/07 02:51:44;;;;;;;4.43;0.80;;;11.30;99.90;;;;;;5066929;28;20024;-63
2022/04/07 02:54:09;;;;;;;3.03;0.80;;;11.30;99.90;;;;;;5061175;28;20032;-62
2022/04/07 02:56:35;;;;;;;5.65;0.60;;;11.20;99.90;;;;;;5067401;28;20063;-61
2022/04/07 02:59:01;;;;;;;2.33;0.70;;;11.20;99.90;;;;;;5064595;28;20385;-61
2022/04/07 03:01:26;;;;;;;1.52;0.57;;;11.10;99.90;;;;;;5062690;28;20040;-63
2022/04/07 03:03:55;;;;;;;3.90;0.90;;;11.00;99.90;;;;;;5064617;28;20035;-58
2022/04/07 03:06:22;;;;;;;0.70;0.50;;;11.00;99.90;;;;;;5062333;28;20029;-62
2022/04/07 03:08:47;;;;;;;3.10;0.68;;;11.00;99.90;;;;;;5063438;28;20032;-61
2022/04/07 03:11:13;;;;;;;1.05;0.60;;;11.00;99.90;;;;;;5061451;28;20055;-61
2022/04/07 03:13:40;;;;;;;3.10;0.77;;;11.00;99.90;;;;;;5062839;28;20020;-61
2022/04/07 03:16:06;;;;;;;2.50;0.82;;;11.00;99.90;;;;;;5060878;28;20032;-60
2022/04/07 03:18:33;;;;;;;3.70;0.80;;;11.00;99.90;;;;;;5061394;28;20488;-59
2022/04/07 03:20:58;;;;;;;3.25;0.98;;;11.00;99.90;;;;;;5062778;28;20028;-61
2022/04/07 03:23:24;;;;;;;1.63;0.80;;;10.90;99.90;;;;;;5063041;28;20031;-62
2022/04/07 03:25:50;;;;;;;2.53;0.80;;;10.90;99.90;;;;;;5065539;28;20024;-57
2022/04/07 03:28:16;;;;;;;1.38;0.70;;;10.90;99.90;;;;;;5066813;28;20097;-61
2022/04/07 03:30:41;;;;;;;0.98;0.70;;;10.80;99.90;;;;;;5066651;28;20460;-61
2022/04/07 03:33:07;;;;;;;1.10;0.50;;;10.90;99.90;;;;;;5064469;28;20490;-61
2022/04/07 03:35:34;;;;;;;4.10;0.63;;;10.90;99.90;;;;;;5055961;28;20095;-61
2022/04/07 03:37:59;;;;;;;6.78;0.80;;;10.90;99.90;;;;;;5067784;28;20025;-62
2022/04/07 03:40:25;;;;;;;3.13;0.70;;;10.80;99.90;;;;;;5070072;28;20502;-63
2022/04/07 03:42:52;;;;;;;0.88;0.60;;;10.80;99.90;;;;;;5065325;28;20025;-60
2022/04/07 03:45:18;;;;;;;2.28;0.73;;;10.90;99.90;;;;;;5063380;28;20052;-62
2022/04/07 03:47:43;;;;;;;3.92;0.75;;;10.90;99.90;;;;;;5066067;28;20021;-59
2022/04/07 03:50:09;;;;;;;2.45;1.27;;;10.90;99.90;;;;;;5035394;28;20484;-62
2022/04/07 03:52:36;;;;;;;1.27;0.52;;;10.90;99.90;;;;;;5046065;28;20479;-60
2022/04/07 03:55:03;;;;;;;3.33;0.80;;;10.90;99.90;;;;;;5048263;28;20025;-61
2022/04/07 03:57:28;;;;;;;1.27;0.50;;;10.90;99.90;;;;;;5042480;28;20037;-58
2022/04/07 03:59:54;;;;;;;3.80;1.10;;;11.00;99.90;;;;;;5048802;28;20043;-58
2022/04/07 04:02:19;;;;;;;2.15;0.65;;;11.00;99.90;;;;;;5054511;28;20377;-58
2022/04/07 04:04:45;;;;;;;0.57;0.57;;;11.00;99.90;;;;;;5053949;28;20440;-56
2022/04/07 04:07:10;;;;;;;4.07;0.60;;;11.00;99.90;;;;;;5055410;28;20056;-60
2022/04/07 04:09:36;;;;;;;2.10;0.65;;;11.00;99.90;;;;;;5056935;28;20510;-61
2022/04/07 04:12:02;;;;;;;2.97;0.52;;;10.90;99.90;;;;;;5053128;28;20024;-57
2022/04/07 04:14:29;;;;;;;1.75;0.60;;;11.00;99.90;;;;;;5054961;28;20401;-60
2022/04/07 04:16:55;;;;;;;4.13;0.52;;;11.00;99.90;;;;;;5044994;28;20033;-59
2022/04/07 04:19:20;;;;;;;0.85;0.60;;;11.00;99.90;;;;;;5052629;28;20215;-59
2022/04/07 04:21:46;;;;;;;1.60;0.40;;;10.90;99.90;;;;;;5053463;28;20061;-58
2022/04/07 04:24:12;;;;;;;0.55;0.50;;;10.90;99.90;;;;;;5054731;28;20029;-59
2022/04/07 04:26:38;;;;;;;6.10;0.70;;;10.90;99.90;;;;;;5049341;28;20123;-57
2022/04/07 04:29:04;;;;;;;0.85;0.50;;;10.90;99.90;;;;;;5048022;28;20033;-56
2022/04/07 04:31:30;;;;;;;2.00;0.50;;;10.90;99.90;;;;;;5040332;28;20037;-58
2022/04/07 04:33:55;;;;;;;0.75;0.45;;;10.90;99.90;;;;;;5048091;28;20037;-57
2022/04/07 04:36:21;;;;;;;0.98;0.80;;;10.90;99.90;;;;;;5048215;28;20033;-58
2022/04/07 04:38:48;;;;;;;1.10;0.60;;;10.90;99.90;;;;;;5053508;28;20033;-59
2022/04/07 04:41:13;;;;;;;0.98;0.60;;;10.90;99.90;;;;;;5040739;28;20034;-60
2022/04/07 04:43:39;;;;;;;1.95;0.60;;;10.90;99.90;;;;;;5041030;28;20436;-61
2022/04/07 04:46:05;;;;;;;1.40;0.50;;;10.90;99.90;;;;;;5040011;28;20065;-61
2022/04/07 04:48:31;;;;;;;0.70;0.50;;;10.90;99.90;;;;;;5058417;28;20025;-60
2022/04/07 04:50:56;;;;;;;2.58;0.77;;;10.80;99.90;;;;;;5075163;28;20035;-60
2022/04/07 04:53:22;;;;;;;0.85;0.70;;;10.90;99.90;;;;;;5066978;28;20032;-61
2022/04/07 04:55:48;;;;;;;0.70;0.70;;;11.00;99.90;;;;;;5067110;28;20637;-61
2022/04/07 04:58:14;;;;;;;2.22;0.73;;;11.00;99.90;;;;;;5066974;28;20024;-61
2022/04/07 05:00:41;;;;;;;1.40;0.80;;;11.00;99.90;;;;;;5070954;28;20158;-60
2022/04/07 05:03:06;;;;;;;0.93;0.60;;;11.00;99.90;;;;;;5076528;28;20559;-60
2022/04/07 05:05:32;;;;;;;1.73;0.70;;;11.00;99.90;;;;;;5075081;28;20107;-59
2022/04/07 05:07:58;;;;;;;2.13;0.80;;;11.10;99.90;;;;;;5076185;28;20032;-61
2022/04/07 05:10:24;;;;;;;2.72;1.05;;;11.10;99.90;;;;;;5075804;28;20036;-62
2022/04/07 05:12:51;;;;;;;2.58;0.80;;;11.10;99.90;;;;;;5073681;28;20020;-61
2022/04/07 05:15:16;;;;;;;2.97;0.82;;;11.10;99.90;;;;;;5072500;28;20058;-63
2022/04/07 05:17:46;;;;;;;4.40;0.88;;;11.20;99.90;;;;;;5075479;28;20028;-62
2022/04/07 05:20:12;;;;;;;2.92;0.73;;;11.30;99.90;;;;;;5073956;28;20028;-63
2022/04/07 05:22:37;;;;;;;3.55;1.05;;;11.30;99.90;;;;;;5077608;28;20102;-57
2022/04/07 05:25:04;;;;;;;3.03;0.98;;;11.30;99.90;;;;;;5062692;28;20025;-58
2022/04/07 05:27:32;;;;;;;3.25;0.80;;;11.30;99.90;;;;;;5077864;28;20032;-57
2022/04/07 05:29:59;;;;;;;4.78;0.90;;;11.30;99.90;;;;;;5076683;28;20020;-58
2022/04/07 05:32:24;;;;;;;1.08;0.70;;;11.40;99.90;;;;;;5072284;28;20036;-59
2022/04/07 05:34:49;;;;;;;5.47;2.08;;;11.40;99.90;;;;;;5051901;28;20028;-59
2022/04/07 05:37:15;;;;;;;3.35;0.88;;;11.40;99.90;;;;;;5074562;28;20025;-59
2022/04/07 05:39:41;;;;;;;3.25;0.75;;;11.40;99.90;;;;;;5074512;28;20059;-59
2022/04/07 05:42:06;;;;;;;1.05;0.70;;;11.30;99.90;;;;;;5067967;28;20389;-58
2022/04/07 05:44:32;;;;;;;4.13;0.70;;;11.30;99.90;;;;;;5056600;28;20492;-57
2022/04/07 05:46:57;;;;;;;2.88;0.68;;;11.30;99.90;;;;;;5072171;28;20107;-62
2022/04/07 05:49:23;;;;;;;2.72;0.68;;;11.30;99.90;;;;;;5069241;28;20040;-55
2022/04/07 05:51:53;;;;;;;0.77;0.70;;;11.30;99.90;;;;;;5070153;28;20040;-58
2022/04/07 05:54:20;;;;;;;1.30;0.68;;;11.30;99.90;;;;;;5073703;28;20035;-56
2022/04/07 05:56:45;;;;;;;3.75;0.80;;;11.30;99.90;;;;;;5071397;28;20025;-59
2022/04/07 05:59:11;;;;;;;1.77;0.70;;;11.30;99.90;;;;;;5070863;28;20501;-59
2022/04/07 06:01:37;;;;;;;0.77;0.52;;;11.20;99.90;;;;;;5076531;28;20110;-58
2022/04/07 06:04:02;;;;;;;3.60;0.60;;;11.20;99.90;;;;;;5074100;28;20071;-56
2022/04/07 06:06:28;;;;;;;1.30;0.70;;;11.10;99.90;;;;;;5076245;28;20047;-59
2022/04/07 06:08:53;;;;;;;1.10;0.60;;;11.10;99.90;;;;;;5070984;28;20031;-58
2022/04/07 06:11:19;;;;;;;1.05;0.60;;;11.10;99.90;;;;;;5074467;28;20024;-59
2022/04/07 06:13:44;;;;;;;2.67;0.73;;;11.10;99.90;;;;;;5073989;28;20039;-58
2022/04/07 06:16:10;;;;;;;1.35;0.63;;;11.10;99.90;;;;;;5075104;28;20115;-57
2022/04/07 06:18:35;;;;;;;1.60;0.68;;;11.10;99.90;;;;;;5074479;28;20098;-59
2022/04/07 06:21:01;;;;;;;2.63;0.70;;;11.10;99.90;;;;;;5072044;28;20024;-57
2022/04/07 06:23:26;;;;;;;4.00;1.52;;;11.00;99.90;;;;;;5069556;28;20024;-58
2022/04/07 06:25:52;;;;;;;1.83;0.77;;;11.00;99.90;;;;;;5075908;28;20519;-62
2022/04/07 06:28:22;;;;;;;5.78;2.38;;;10.80;99.90;;;;;;5073992;28;20531;-62
2022/04/07 06:30:48;;;;;;;2.10;0.70;;;10.80;99.90;;;;;;5068933;28;20055;-60
2022/04/07 06:33:13;;;;;;;4.22;0.82;;;10.80;99.90;;;;;;5073010;28;20029;-61
2022/04/07 06:35:39;;;;;;;6.30;1.58;;;10.90;99.90;;;;;;5068888;28;20073;-60
2022/04/07 06:38:05;;;;;;;4.30;1.00;;;10.90;99.90;;;;;;5069730;28;20372;-60
2022/04/07 06:40:31;;;;;;;1.40;0.73;;;10.90;99.90;;;;;;5072597;28;20024;-58
2022/04/07 06:42:58;;;;;;;12.90;1.90;;;11.00;99.90;;;;;;5069374;28;20027;-58
2022/04/07 06:45:25;;;;;;;2.78;0.70;;;11.10;99.90;;;;;;5074211;28;20029;-60
2022/04/07 06:47:51;;;;;;;2.33;0.40;;;11.10;99.90;;;;;;5066929;28;20024;-62
2022/04/07 06:50:20;;;;;;;1.67;0.70;;;11.10;99.90;;;;;;5060091;28;20044;-60
2022/04/07 06:52:46;;;;;;;1.15;0.50;;;11.20;99.90;;;;;;5065287;28;20021;-62
2022/04/07 06:55:12;;;;;;;2.08;1.15;;;11.20;99.90;;;;;;5067260;28;20744;-61
2022/04/07 06:58:00;;;;;;;1.45;0.52;;;11.20;99.90;;;;;;5066496;28;20040;-61
2022/04/07 07:00:31;;;;;;;1.05;0.60;;;11.10;99.90;;;;;;5045762;28;20407;-61
2022/04/07 07:02:59;;;;;;;1.80;0.85;;;11.10;99.90;;;;;;5065213;28;20028;-59
2022/04/07 07:05:28;;;;;;;0.43;0.43;;;11.20;99.90;;;;;;5076022;28;20050;-61
2022/04/07 07:07:53;;;;;;;0.35;0.35;;;11.20;99.90;;;;;;5068535;28;20028;-62
2022/04/07 07:10:24;;;;;;;3.30;0.50;;;11.30;99.90;;;;;;5065616;28;20051;-60
2022/04/07 07:12:51;;;;;;;4.55;0.50;;;11.40;99.90;;;;;;5068920;28;20025;-61
2022/04/07 07:15:17;;;;;;;1.48;0.40;;;11.50;99.90;;;;;;5064900;28;20029;-61
2022/04/07 07:17:43;;;;;;;4.63;0.60;;;11.50;99.90;;;;;;5068562;28;20048;-60
2022/04/07 07:20:13;;;;;;;1.60;0.70;;;11.60;99.90;;;;;;5070198;28;20063;-60
2022/04/07 07:22:40;;;;;;;1.33;0.45;;;11.60;99.90;;;;;;5069763;28;20463;-62
2022/04/07 07:25:06;;;;;;;5.22;0.80;;;11.50;99.90;;;;;;5071605;28;20066;-63
2022/04/07 07:27:39;;;;;;;4.28;0.40;;;11.40;99.90;;;;;;5070898;28;20047;-63
2022/04/07 07:30:09;;;;;;;2.38;0.57;;;11.30;99.90;;;;;;5071821;28;20017;-61
2022/04/07 07:32:38;;;;;;;1.33;0.40;;;11.20;99.90;;;;;;5069623;28;20031;-59
2022/04/07 07:35:05;;;;;;;3.17;0.52;;;11.20;99.90;;;;;;5070652;28;20055;-60
2022/04/07 07:37:31;;;;;;;0.85;0.65;;;11.30;99.90;;;;;;5070197;28;20672;-59
2022/04/07 07:39:57;;;;;;;0.55;0.40;;;11.40;99.90;;;;;;5069806;28;20036;-59
2022/04/07 07:42:24;;;;;;;0.93;0.47;;;11.50;99.90;;;;;;5069288;28;20029;-61
2022/04/07 07:44:49;;;;;;;0.25;0.20;;;11.60;99.90;;;;;;5068358;28;20149;-61
2022/04/07 07:47:15;;;;;;;0.45;0.20;;;11.60;99.90;;;;;;5074709;28;20599;-59
2022/04/07 07:49:40;;;;;;;0.28;0.20;;;11.70;99.90;;;;;;5071734;28;20449;-62
2022/04/07 07:52:06;;;;;;;2.05;0.45;;;11.80;99.90;;;;;;5069172;28;20127;-59
2022/04/07 07:54:31;;;;;;;1.08;0.30;;;11.80;99.90;;;;;;5077980;28;20043;-57
2022/04/07 07:56:58;;;;;;;1.33;0.30;;;11.80;99.90;;;;;;5069197;28;20049;-62
2022/04/07 07:59:24;;;;;;;0.22;0.22;;;11.80;99.90;;;;;;5078051;28;20032;-59
2022/04/07 08:01:49;;;;;;;1.85;0.30;;;11.70;99.90;;;;;;5069951;28;20086;-58
2022/04/07 08:04:15;;;;;;;0.40;0.30;;;11.70;99.90;;;;;;5074637;28;20056;-61
2022/04/07 08:06:41;;;;;;;0.30;0.30;;;11.60;99.90;;;;;;5071641;28;20462;-61
2022/04/07 08:09:09;;;;;;;0.43;0.30;;;11.60;99.90;;;;;;5060572;28;20032;-60
2022/04/07 08:11:35;;;;;;;0.20;0.20;;;11.70;99.90;;;;;;5069409;28;20025;-62
2022/04/07 08:14:01;;;;;;;0.38;0.25;;;11.70;99.90;;;;;;5070720;28;20027;-59
2022/04/07 08:16:29;;;;;;;0.25;0.25;;;11.70;99.90;;;;;;5065642;28;20043;-59
2022/04/07 08:18:55;;;;;;;0.40;0.30;;;11.80;99.90;;;;;;5072096;28;20028;-60
2022/04/07 08:21:20;;;;;;;0.95;0.38;;;11.90;99.90;;;;;;5072032;28;20030;-60
2022/04/07 08:23:46;;;;;;;1.20;0.38;;;11.80;99.90;;;;;;5068026;28;20394;-59
2022/04/07 08:26:12;;;;;;;0.28;0.28;;;11.80;99.90;;;;;;5073001;28;20031;-59
2022/04/07 08:28:37;;;;;;;0.60;0.20;;;11.80;99.90;;;;;;5070007;28;20035;-61
2022/04/07 08:31:03;;;;;;;0.20;0.20;;;11.90;99.90;;;;;;5070757;28;20488;-61
2022/04/07 08:33:28;;;;;;;0.30;0.30;;;12.00;99.90;;;;;;5065389;28;20080;-62
2022/04/07 08:35:54;;;;;;;0.82;0.30;;;12.00;99.90;;;;;;5071924;28;20028;-62
2022/04/07 08:38:20;;;;;;;0.93;0.40;;;12.00;99.90;;;;;;5058074;28;20039;-59
2022/04/07 08:40:50;;;;;;;0.57;0.17;;;12.10;99.90;;;;;;5068543;28;20027;-58
2022/04/07 08:43:15;;;;;;;0.68;0.30;;;12.20;99.90;;;;;;5069866;28;20048;-60
2022/04/07 08:45:43;;;;;;;0.93;0.13;;;12.20;99.90;;;;;;5050566;28;20060;-61
2022/04/07 08:48:11;;;;;;;0.30;0.20;;;12.20;99.90;;;;;;5075175;28;20047;-59
2022/04/07 08:50:39;;;;;;;0.30;0.20;;;12.30;99.90;;;;;;5090374;22;20120;-60
2022/04/07 08:53:05;;;;;;;0.60;0.30;;;12.30;99.90;;;;;;5049290;28;20024;-60
2022/04/07 08:55:30;;;;;;;0.50;0.30;;;12.40;99.90;;;;;;5051870;28;20059;-60
2022/04/07 08:57:56;;;;;;;1.88;0.30;;;12.40;99.90;;;;;;5049829;28;20053;-62
2022/04/07 09:00:21;;;;;;;0.20;0.20;;;12.40;99.90;;;;;;5052077;28;20123;-59
2022/04/07 09:02:47;;;;;;;1.05;0.30;;;12.30;99.90;;;;;;5051577;28;20021;-61
2022/04/07 09:05:13;;;;;;;2.20;0.38;;;12.20;99.90;;;;;;5051854;28;20043;-61
2022/04/07 09:07:39;;;;;;;0.77;0.30;;;12.20;99.90;;;;;;5049606;28;20029;-60
2022/04/07 09:10:06;;;;;;;1.17;0.55;;;12.20;99.90;;;;;;5052824;28;20024;-61
2022/04/07 09:12:34;;;;;;;2.38;0.30;;;12.30;99.90;;;;;;5051718;28;20104;-60
2022/04/07 09:14:59;;;;;;;0.52;0.30;;;12.40;99.90;;;;;;5051597;28;20036;-61
2022/04/07 09:17:30;;;;;;;0.40;0.20;;;12.60;99.90;;;;;;5051603;28;20440;-62
2022/04/07 09:19:55;;;;;;;0.20;0.20;;;12.70;99.90;;;;;;5051396;28;20036;-59
2022/04/07 09:22:30;;;;;;;0.30;0.30;;;13.00;99.90;;;;;;5051259;28;20025;-59
2022/04/07 09:24:58;;;;;;;1.05;0.38;;;13.30;99.90;;;;;;5049057;28;20108;-60
2022/04/07 09:27:23;;;;;;;0.30;0.30;;;13.40;99.90;;;;;;5051482;28;20021;-59
2022/04/07 09:29:54;;;;;;;0.30;0.30;;;13.50;99.90;;;;;;5033783;28;20032;-60
2022/04/07 09:32:22;;;;;;;1.02;0.30;;;13.70;99.90;;;;;;5052063;28;20025;-60
2022/04/07 09:34:56;;;;;;;2.38;0.43;;;13.80;99.90;;;;;;5051692;28;20032;-60
2022/04/07 09:37:24;;;;;;;3.60;0.40;;;13.90;99.90;;;;;;5050176;28;20025;-59
2022/04/07 09:40:19;;;;;;;0.40;0.40;;;13.90;99.90;;;;;;5052138;28;20029;-57
2022/04/07 09:42:45;;;;;;;0.35;0.30;;;14.00;99.90;;;;;;5051213;28;20096;-59
2022/04/07 09:45:13;;;;;;;1.65;0.38;;;14.10;99.90;;;;;;5051581;28;20136;-61
2022/04/07 09:47:43;;;;;;;0.45;0.30;;;14.10;99.90;;;;;;5050399;28;20484;-60
2022/04/07 09:50:23;;;;;;;0.43;0.25;;;14.20;99.90;;;;;;5051970;28;20486;-61
2022/04/07 09:53:05;;;;;;;2.92;0.50;;;14.10;99.90;;;;;;5068654;28;20032;-60
2022/04/07 09:55:41;;;;;;;1.65;0.20;;;14.10;99.90;;;;;;5071208;28;20025;-61
2022/04/07 09:58:08;;;;;;;0.65;0.38;;;14.10;99.90;;;;;;5070880;28;20035;-59
2022/04/07 10:00:35;;;;;;;0.38;0.38;;;14.00;99.90;;;;;;5071468;28;20596;-60
2022/04/07 10:03:02;;;;;;;0.70;0.30;;;13.90;99.90;;;;;;5071032;28;20069;-59
2022/04/07 10:05:28;;;;;;;4.00;0.40;;;13.90;99.90;;;;;;5070302;28;20510;-60
2022/04/07 10:07:57;;;;;;;0.90;0.35;;;13.80;99.90;;;;;;5067473;28;20032;-61
2022/04/07 10:10:23;;;;;;;0.50;0.50;;;13.60;99.90;;;;;;5063395;28;20024;-60
2022/04/07 10:12:49;;;;;;;0.43;0.43;;;13.40;99.90;;;;;;5070916;28;20376;-62
2022/04/07 10:15:17;;;;;;;0.30;0.28;;;13.30;99.90;;;;;;5070905;28;20546;-61
2022/04/07 10:17:42;;;;;;;2.33;0.50;;;13.20;99.90;;;;;;5051076;28;20032;-61
2022/04/07 10:20:14;;;;;;;1.13;0.38;;;13.20;99.90;;;;;;5071415;28;20036;-58
2022/04/07 10:22:58;;;;;;;0.95;0.40;;;13.10;99.90;;;;;;5068701;28;20499;-62
2022/04/07 10:25:25;;;;;;;2.90;0.40;;;13.00;99.90;;;;;;5064932;28;20043;-62
2022/04/07 10:27:54;;;;;;;1.48;0.55;;;12.80;99.90;;;;;;5068249;28;20028;-61
2022/04/07 10:30:20;;;;;;;4.57;0.82;;;12.70;99.90;;;;;;5070104;28;20077;-62
2022/04/07 10:32:48;;;;;;;1.52;0.55;;;12.50;99.90;;;;;;5070245;28;20522;-61
2022/04/07 10:35:33;;;;;;;4.43;0.55;;;12.40;99.90;;;;;;5068515;28;20021;-60
2022/04/07 10:38:11;;;;;;;2.78;0.40;;;12.20;99.90;;;;;;5064938;28;20013;-57
2022/04/07 10:40:49;;;;;;;4.85;0.80;;;12.00;99.90;;;;;;5063660;28;20082;-59
2022/04/07 10:43:14;;;;;;;5.80;1.65;;;11.70;99.90;;;;;;5069274;28;20392;-59
2022/04/07 10:45:45;;;;;;;2.42;0.90;;;11.50;99.90;;;;;;5049992;28;20053;-64
2022/04/07 10:48:24;;;;;;;6.38;0.93;;;11.30;99.90;;;;;;5064054;28;20020;-59
2022/04/07 10:51:10;;;;;;;3.88;1.23;;;11.20;99.90;;;;;;5068326;28;20028;-61
2022/04/07 10:53:38;;;;;;;5.13;0.82;;;11.00;99.90;;;;;;5067657;28;20427;-56
2022/04/07 10:56:11;;;;;;;3.78;0.40;;;10.90;99.90;;;;;;5069048;28;20036;-61
2022/04/07 10:58:45;;;;;;;3.20;0.70;;;10.80;99.90;;;;;;5066305;28;20147;-58
2022/04/07 11:01:32;;;;;;;5.13;0.68;;;10.70;99.90;;;;;;5068091;28;20024;-58
2022/04/07 11:04:20;;;;;;;0.98;0.50;;;10.60;99.90;;;;;;5064995;28;20113;-56
2022/04/07 11:07:04;;;;;;;1.75;0.70;;;10.60;99.90;;;;;;5068051;28;20068;-58
2022/04/07 11:09:55;;;;;;;2.60;0.70;;;10.60;99.90;;;;;;5066079;28;20109;-60
2022/04/07 11:12:28;;;;;;;4.68;0.90;;;10.50;99.90;;;;;;5064981;28;20445;-57
2022/04/07 11:15:22;;;;;;;3.53;0.57;;;10.50;99.90;;;;;;5065387;28;20028;-59
2022/04/07 11:17:52;;;;;;;3.03;0.60;;;10.50;99.90;;;;;;5063506;28;20445;-61
2022/04/07 11:20:25;;;;;;;1.20;0.50;;;10.50;99.90;;;;;;5067413;28;20030;-62
2022/04/07 11:23:13;;;;;;;0.47;0.40;;;10.80;99.90;;;;;;5063597;28;20020;-60
2022/04/07 11:25:41;;;;;;;1.35;0.80;;;11.10;99.90;;;;;;5061932;28;20032;-59
2022/04/07 11:28:13;;;;;;;0.80;0.60;;;11.30;99.90;;;;;;5065878;28;20025;-61
2022/04/07 11:31:04;;;;;;;3.42;0.65;;;11.50;99.90;;;;;;5068706;28;20020;-59
2022/04/07 11:33:37;;;;;;;0.52;0.50;;;11.80;99.90;;;;;;5066899;28;20032;-59
2022/04/07 11:36:03;;;;;;;1.40;0.40;;;12.10;99.90;;;;;;5063708;28;20020;-60
2022/04/07 11:38:32;;;;;;;0.40;0.30;;;12.60;99.90;;;;;;5065263;28;20030;-59
2022/04/07 11:41:05;;;;;;;1.00;0.40;;;12.90;99.90;;;;;;5061022;28;20064;-60
2022/04/07 11:43:32;;;;;;;1.40;0.50;;;13.10;99.90;;;;;;5068851;28;20078;-58
2022/04/07 11:45:58;;;;;;;1.33;0.80;;;13.20;99.90;;;;;;5067700;28;20795;-60
2022/04/07 11:48:29;;;;;;;3.35;1.08;;;13.20;99.90;;;;;;5061981;28;20056;-59
2022/04/07 11:51:00;;;;;;;2.65;0.73;;;13.20;99.90;;;;;;5062669;28;20029;-63
2022/04/07 11:53:26;;;;;;;6.70;0.70;;;13.20;99.90;;;;;;5068821;28;20032;-59
2022/04/07 11:55:52;;;;;;;0.55;0.50;;;13.40;99.90;;;;;;5066728;28;20101;-60
2022/04/07 11:58:17;;;;;;;1.83;0.90;;;13.60;99.90;;;;;;5069216;28;20021;-60
2022/04/07 12:00:43;;;;;;;4.90;0.73;;;13.60;99.90;;;;;;5066921;28;20035;-59
2022/04/07 12:03:09;;;;;;;3.03;1.08;;;13.70;99.90;;;;;;5068664;28;20036;-61
2022/04/07 12:05:42;;;;;;;4.40;0.82;;;13.60;99.90;;;;;;5066107;28;20109;-59
2022/04/07 12:08:12;;;;;;;2.58;0.75;;;14.10;99.90;;;;;;5068092;28;20025;-60
2022/04/07 12:10:45;;;;;;;3.10;1.38;;;14.30;99.90;;;;;;5067170;28;20068;-63
2022/04/07 12:13:11;;;;;;;1.42;0.60;;;14.40;99.90;;;;;;5066791;28;20017;-60
2022/04/07 12:15:38;;;;;;;2.80;1.05;;;14.40;99.90;;;;;;5062194;28;20024;-61
2022/04/07 12:18:09;;;;;;;2.78;0.80;;;14.50;99.90;;;;;;5066802;28;20507;-61
2022/04/07 12:20:37;;;;;;;2.50;0.80;;;14.70;99.90;;;;;;5067424;28;20557;-63
2022/04/07 12:23:08;;;;;;;0.80;0.52;;;14.80;99.90;;;;;;5072149;28;20078;-63
2022/04/07 12:25:34;;;;;;;4.10;0.93;;;15.20;99.90;;;;;;5071262;28;20028;-59
2022/04/07 12:28:38;;;;;;;4.72;0.85;;;15.30;99.90;;;;;;5069517;28;20068;-60
2022/04/07 12:31:10;;;;;;;1.75;0.55;;;15.50;99.90;;;;;;5070543;28;20431;-60
2022/04/07 12:33:46;;;;;;;2.85;0.65;;;15.40;99.90;;;;;;5071695;28;20031;-59
2022/04/07 12:36:14;;;;;;;3.08;0.70;;;15.40;99.90;;;;;;5070956;28;20025;-63
2022/04/07 12:38:41;;;;;;;2.65;0.80;;;15.40;99.90;;;;;;5072521;28;20086;-64
2022/04/07 12:41:14;;;;;;;5.88;1.02;;;15.20;99.90;;;;;;5072333;28;20024;-64
2022/04/07 12:43:46;;;;;;;5.30;1.05;;;15.00;99.90;;;;;;5070370;28;20036;-64
2022/04/07 12:46:13;;;;;;;6.15;1.13;;;15.00;99.90;;;;;;5070192;28;20021;-61
2022/04/07 12:49:05;;;;;;;3.03;0.98;;;15.00;99.90;;;;;;5065312;28;20029;-61
2022/04/07 12:51:31;;;;;;;8.05;1.10;;;14.60;99.90;;;;;;5067439;28;20028;-62